sensor_id;sensor_type;location;lat;lon;timestamp;temperature;humidity
10388;DHT22;5240;51.128;4.566;2023-04-08T00:00:33;9.10;99.90
10388;DHT22;5240;51.128;4.566;2023-04-08T00:03:00;9.10;99.90
10388;DHT22;5240;51.128;4.566;2023-04-08T00:05:27;9.10;99.90
10388;DHT22;5240;51.128;4.566;2023-04-08T00:07:54;9.10;99.90
10388;DHT22;5240;51.128;4.566;2023-04-08T00:10:23;9.10;99.90
10388;DHT22;5240;51.128;4.566;2023-04-08T00:12:51;9.00;99.90
10388;DHT22;5240;51.128;4.566;2023-04-08T00:15:18;9.00;99.90
10388;DHT22;5240;51.128;4.566;2023-04-08T00:17:45;9.10;99.90
10388;DHT22;5240;51.128;4.566;2023-04-08T00:20:12;9.10;99.90
10388;DHT22;5240;51.128;4.566;2023-04-08T00:22:39;9.10;99.90
10388;DHT22;5240;51.128;4.566;2023-04-08T00:25:07;9.10;99.90
10388;DHT22;5240;51.128;4.566;2023-04-08T00:27:35;9.10;99.90
10388;DHT22;5240;51.128;4.566;2023-04-08T00:30:03;9.10;99.90
10388;DHT22;5240;51.128;4.566;2023-04-08T00:32:30;9.20;99.90
10388;DHT22;5240;51.128;4.566;2023-04-08T00:34:57;9.20;99.90
10388;DHT22;5240;51.128;4.566;2023-04-08T00:37:24;9.30;99.90
10388;DHT22;5240;51.128;4.566;2023-04-08T00:39:51;9.30;99.90
10388;DHT22;5240;51.128;4.566;2023-04-08T00:42:19;9.30;99.90
10388;DHT22;5240;51.128;4.566;2023-04-08T00:44:47;9.30;99.90
10388;DHT22;5240;51.128;4.566;2023-04-08T00:47:15;9.20;99.90
10388;DHT22;5240;51.128;4.566;2023-04-08T00:49:42;9.10;99.90
10388;DHT22;5240;51.128;4.566;2023-04-08T00:52:10;9.10;99.90
10388;DHT22;5240;51.128;4.566;2023-04-08T00:54:37;9.20;99.90
10388;DHT22;5240;51.128;4.566;2023-04-08T00:57:05;9.20;99.90
10388;DHT22;5240;51.128;4.566;2023-04-08T00:59:32;9.10;99.90
10388;DHT22;5240;51.128;4.566;2023-04-08T01:02:08;9.10;99.90
10388;DHT22;5240;51.128;4.566;2023-04-08T01:04:45;9.00;99.90
10388;DHT22;5240;51.128;4.566;2023-04-08T01:07:17;9.00;99.90
10388;DHT22;5240;51.128;4.566;2023-04-08T01:09:47;9.00;99.90
10388;DHT22;5240;51.128;4.566;2023-04-08T01:12:19;9.10;99.90
10388;DHT22;5240;51.128;4.566;2023-04-08T01:14:52;9.10;99.90
10388;DHT22;5240;51.128;4.566;2023-04-08T01:17:23;9.20;99.90
10388;DHT22;5240;51.128;4.566;2023-04-08T01:19:50;9.20;99.90
10388;DHT22;5240;51.128;4.566;2023-04-08T01:22:28;9.30;99.90
10388;DHT22;5240;51.128;4.566;2023-04-08T01:25:04;9.30;99.90
10388;DHT22;5240;51.128;4.566;2023-04-08T01:27:34;9.30;99.90
10388;DHT22;5240;51.128;4.566;2023-04-08T01:30:03;9.40;99.90
10388;DHT22;5240;51.128;4.566;2023-04-08T01:32:31;9.30;99.90
10388;DHT22;5240;51.128;4.566;2023-04-08T01:35:00;9.20;99.90
10388;DHT22;5240;51.128;4.566;2023-04-08T01:37:28;9.10;99.90
10388;DHT22;5240;51.128;4.566;2023-04-08T01:39:56;9.10;99.90
10388;DHT22;5240;51.128;4.566;2023-04-08T01:42:24;9.10;99.90
10388;DHT22;5240;51.128;4.566;2023-04-08T01:44:56;9.10;99.90
10388;DHT22;5240;51.128;4.566;2023-04-08T01:47:24;9.10;99.90
10388;DHT22;5240;51.128;4.566;2023-04-08T01:49:52;9.20;99.90
10388;DHT22;5240;51.128;4.566;2023-04-08T01:52:19;9.30;99.90
10388;DHT22;5240;51.128;4.566;2023-04-08T01:54:48;9.30;99.90
10388;DHT22;5240;51.128;4.566;2023-04-08T01:57:18;9.30;99.90
10388;DHT22;5240;51.128;4.566;2023-04-08T01:59:48;9.30;99.90
10388;DHT22;5240;51.128;4.566;2023-04-08T02:02:19;9.40;99.90
10388;DHT22;5240;51.128;4.566;2023-04-08T02:04:47;9.30;99.90
10388;DHT22;5240;51.128;4.566;2023-04-08T02:07:14;9.30;99.90
10388;DHT22;5240;51.128;4.566;2023-04-08T02:09:41;9.30;99.90
10388;DHT22;5240;51.128;4.566;2023-04-08T02:12:08;9.30;99.90
10388;DHT22;5240;51.128;4.566;2023-04-08T02:14:35;9.30;99.90
10388;DHT22;5240;51.128;4.566;2023-04-08T02:17:08;9.20;99.90
10388;DHT22;5240;51.128;4.566;2023-04-08T02:19:43;9.20;99.90
10388;DHT22;5240;51.128;4.566;2023-04-08T02:22:16;9.10;99.90
10388;DHT22;5240;51.128;4.566;2023-04-08T02:24:45;9.00;99.90
10388;DHT22;5240;51.128;4.566;2023-04-08T02:27:12;9.00;99.90
10388;DHT22;5240;51.128;4.566;2023-04-08T02:29:41;9.00;99.90
10388;DHT22;5240;51.128;4.566;2023-04-08T02:32:09;9.00;99.90
10388;DHT22;5240;51.128;4.566;2023-04-08T02:34:39;9.00;99.90
10388;DHT22;5240;51.128;4.566;2023-04-08T02:37:06;9.10;99.90
10388;DHT22;5240;51.128;4.566;2023-04-08T02:39:34;9.00;99.90
10388;DHT22;5240;51.128;4.566;2023-04-08T02:42:01;9.20;99.90
10388;DHT22;5240;51.128;4.566;2023-04-08T02:44:29;9.20;99.90
10388;DHT22;5240;51.128;4.566;2023-04-08T02:46:56;9.20;99.90
10388;DHT22;5240;51.128;4.566;2023-04-08T02:49:23;9.30;99.90
10388;DHT22;5240;51.128;4.566;2023-04-08T02:51:52;9.20;99.90
10388;DHT22;5240;51.128;4.566;2023-04-08T02:54:19;9.10;99.90
10388;DHT22;5240;51.128;4.566;2023-04-08T02:56:46;9.10;99.90
10388;DHT22;5240;51.128;4.566;2023-04-08T02:59:12;9.10;99.90
10388;DHT22;5240;51.128;4.566;2023-04-08T03:01:39;9.00;99.90
10388;DHT22;5240;51.128;4.566;2023-04-08T03:04:06;9.00;99.90
10388;DHT22;5240;51.128;4.566;2023-04-08T03:06:33;9.00;99.90
10388;DHT22;5240;51.128;4.566;2023-04-08T03:09:02;9.00;99.90
10388;DHT22;5240;51.128;4.566;2023-04-08T03:11:30;9.00;99.90
10388;DHT22;5240;51.128;4.566;2023-04-08T03:13:57;9.10;99.90
10388;DHT22;5240;51.128;4.566;2023-04-08T03:16:25;9.20;99.90
10388;DHT22;5240;51.128;4.566;2023-04-08T03:18:52;9.20;99.90
10388;DHT22;5240;51.128;4.566;2023-04-08T03:21:18;9.20;99.90
10388;DHT22;5240;51.128;4.566;2023-04-08T03:23:45;9.20;99.90
10388;DHT22;5240;51.128;4.566;2023-04-08T03:26:14;9.20;99.90
10388;DHT22;5240;51.128;4.566;2023-04-08T03:28:41;9.20;99.90
10388;DHT22;5240;51.128;4.566;2023-04-08T03:31:08;9.20;99.90
10388;DHT22;5240;51.128;4.566;2023-04-08T03:33:35;9.10;99.90
10388;DHT22;5240;51.128;4.566;2023-04-08T03:36:02;9.10;99.90
10388;DHT22;5240;51.128;4.566;2023-04-08T03:38:29;9.00;99.90
10388;DHT22;5240;51.128;4.566;2023-04-08T03:40:56;9.00;99.90
10388;DHT22;5240;51.128;4.566;2023-04-08T03:43:24;8.90;99.90
10388;DHT22;5240;51.128;4.566;2023-04-08T03:45:52;8.90;99.90
10388;DHT22;5240;51.128;4.566;2023-04-08T03:48:19;8.90;99.90
10388;DHT22;5240;51.128;4.566;2023-04-08T03:50:46;8.90;99.90
10388;DHT22;5240;51.128;4.566;2023-04-08T03:53:13;8.90;99.90
10388;DHT22;5240;51.128;4.566;2023-04-08T03:55:40;8.80;99.90
10388;DHT22;5240;51.128;4.566;2023-04-08T03:58:07;8.90;99.90
10388;DHT22;5240;51.128;4.566;2023-04-08T04:00:36;8.90;99.90
10388;DHT22;5240;51.128;4.566;2023-04-08T04:03:03;8.90;99.90
10388;DHT22;5240;51.128;4.566;2023-04-08T04:05:30;8.80;99.90
10388;DHT22;5240;51.128;4.566;2023-04-08T04:07:57;8.90;99.90
10388;DHT22;5240;51.128;4.566;2023-04-08T04:10:24;8.80;99.90
10388;DHT22;5240;51.128;4.566;2023-04-08T04:12:51;8.90;99.90
10388;DHT22;5240;51.128;4.566;2023-04-08T04:15:18;8.90;99.90
10388;DHT22;5240;51.128;4.566;2023-04-08T04:17:48;8.90;99.90
10388;DHT22;5240;51.128;4.566;2023-04-08T04:20:15;8.90;99.90
10388;DHT22;5240;51.128;4.566;2023-04-08T04:22:43;8.90;99.90
10388;DHT22;5240;51.128;4.566;2023-04-08T04:25:10;8.90;99.90
10388;DHT22;5240;51.128;4.566;2023-04-08T04:27:37;8.90;99.90
10388;DHT22;5240;51.128;4.566;2023-04-08T04:30:05;8.90;99.90
10388;DHT22;5240;51.128;4.566;2023-04-08T04:32:34;8.90;99.90
10388;DHT22;5240;51.128;4.566;2023-04-08T04:35:02;8.90;99.90
10388;DHT22;5240;51.128;4.566;2023-04-08T04:37:29;8.90;99.90
10388;DHT22;5240;51.128;4.566;2023-04-08T04:39:56;8.90;99.90
10388;DHT22;5240;51.128;4.566;2023-04-08T04:42:23;8.90;99.90
10388;DHT22;5240;51.128;4.566;2023-04-08T04:44:50;8.80;99.90
10388;DHT22;5240;51.128;4.566;2023-04-08T04:47:18;8.90;99.90
10388;DHT22;5240;51.128;4.566;2023-04-08T04:49:45;8.90;99.90
10388;DHT22;5240;51.128;4.566;2023-04-08T04:52:14;9.00;99.90
10388;DHT22;5240;51.128;4.566;2023-04-08T04:54:41;8.90;99.90
10388;DHT22;5240;51.128;4.566;2023-04-08T04:57:08;8.90;99.90
10388;DHT22;5240;51.128;4.566;2023-04-08T04:59:35;8.90;99.90
10388;DHT22;5240;51.128;4.566;2023-04-08T05:02:02;8.90;99.90
10388;DHT22;5240;51.128;4.566;2023-04-08T05:04:30;8.80;99.90
10388;DHT22;5240;51.128;4.566;2023-04-08T05:06:58;8.80;99.90
10388;DHT22;5240;51.128;4.566;2023-04-08T05:09:28;8.80;99.90
10388;DHT22;5240;51.128;4.566;2023-04-08T05:11:55;8.80;99.90
10388;DHT22;5240;51.128;4.566;2023-04-08T05:14:22;8.80;99.90
10388;DHT22;5240;51.128;4.566;2023-04-08T05:16:49;8.90;99.90
10388;DHT22;5240;51.128;4.566;2023-04-08T05:19:16;8.90;99.90
10388;DHT22;5240;51.128;4.566;2023-04-08T05:21:43;8.80;99.90
10388;DHT22;5240;51.128;4.566;2023-04-08T05:24:10;8.70;99.90
10388;DHT22;5240;51.128;4.566;2023-04-08T05:26:38;8.70;99.90
10388;DHT22;5240;51.128;4.566;2023-04-08T05:29:05;8.60;99.90
10388;DHT22;5240;51.128;4.566;2023-04-08T05:31:32;8.50;99.90
10388;DHT22;5240;51.128;4.566;2023-04-08T05:33:59;8.40;99.90
10388;DHT22;5240;51.128;4.566;2023-04-08T05:36:26;8.50;99.90
10388;DHT22;5240;51.128;4.566;2023-04-08T05:38:53;8.40;99.90
10388;DHT22;5240;51.128;4.566;2023-04-08T05:41:20;8.40;99.90
10388;DHT22;5240;51.128;4.566;2023-04-08T05:43:49;8.40;99.90
10388;DHT22;5240;51.128;4.566;2023-04-08T05:46:16;8.30;99.90
10388;DHT22;5240;51.128;4.566;2023-04-08T05:48:43;8.20;99.90
10388;DHT22;5240;51.128;4.566;2023-04-08T05:51:12;8.20;99.90
10388;DHT22;5240;51.128;4.566;2023-04-08T05:53:40;8.10;99.90
10388;DHT22;5240;51.128;4.566;2023-04-08T05:56:07;8.10;99.90
10388;DHT22;5240;51.128;4.566;2023-04-08T05:58:34;8.10;99.90
10388;DHT22;5240;51.128;4.566;2023-04-08T06:01:03;8.10;99.90
10388;DHT22;5240;51.128;4.566;2023-04-08T06:03:31;8.10;99.90
10388;DHT22;5240;51.128;4.566;2023-04-08T06:05:58;8.20;99.90
10388;DHT22;5240;51.128;4.566;2023-04-08T06:08:25;8.40;99.90
10388;DHT22;5240;51.128;4.566;2023-04-08T06:10:52;8.60;99.90
10388;DHT22;5240;51.128;4.566;2023-04-08T06:13:19;8.70;99.90
10388;DHT22;5240;51.128;4.566;2023-04-08T06:15:46;8.90;99.90
10388;DHT22;5240;51.128;4.566;2023-04-08T06:18:16;9.10;99.90
10388;DHT22;5240;51.128;4.566;2023-04-08T06:20:43;9.20;99.90
10388;DHT22;5240;51.128;4.566;2023-04-08T06:23:10;9.20;99.90
10388;DHT22;5240;51.128;4.566;2023-04-08T06:25:37;9.20;99.90
10388;DHT22;5240;51.128;4.566;2023-04-08T06:28:04;9.20;99.90
10388;DHT22;5240;51.128;4.566;2023-04-08T06:30:31;9.20;99.90
10388;DHT22;5240;51.128;4.566;2023-04-08T06:32:58;9.30;99.90
10388;DHT22;5240;51.128;4.566;2023-04-08T06:35:27;9.40;99.90
10388;DHT22;5240;51.128;4.566;2023-04-08T06:37:54;9.40;99.90
10388;DHT22;5240;51.128;4.566;2023-04-08T06:40:21;9.50;99.90
10388;DHT22;5240;51.128;4.566;2023-04-08T06:42:48;9.60;99.90
10388;DHT22;5240;51.128;4.566;2023-04-08T06:45:15;9.60;99.90
10388;DHT22;5240;51.128;4.566;2023-04-08T06:47:42;9.60;99.90
10388;DHT22;5240;51.128;4.566;2023-04-08T06:50:09;9.60;99.90
10388;DHT22;5240;51.128;4.566;2023-04-08T06:52:38;9.70;99.90
10388;DHT22;5240;51.128;4.566;2023-04-08T06:55:05;9.60;99.90
10388;DHT22;5240;51.128;4.566;2023-04-08T06:57:32;9.60;99.90
10388;DHT22;5240;51.128;4.566;2023-04-08T06:59:59;9.70;99.90
10388;DHT22;5240;51.128;4.566;2023-04-08T07:02:26;9.70;99.90
10388;DHT22;5240;51.128;4.566;2023-04-08T07:04:53;9.70;99.90
10388;DHT22;5240;51.128;4.566;2023-04-08T07:07:20;9.70;99.90
10388;DHT22;5240;51.128;4.566;2023-04-08T07:09:50;9.80;99.90
10388;DHT22;5240;51.128;4.566;2023-04-08T07:12:17;9.90;99.90
10388;DHT22;5240;51.128;4.566;2023-04-08T07:14:44;9.90;99.90
10388;DHT22;5240;51.128;4.566;2023-04-08T07:17:11;9.90;99.90
10388;DHT22;5240;51.128;4.566;2023-04-08T07:19:38;9.90;99.90
10388;DHT22;5240;51.128;4.566;2023-04-08T07:22:05;10.00;99.90
10388;DHT22;5240;51.128;4.566;2023-04-08T07:24:32;10.00;99.90
10388;DHT22;5240;51.128;4.566;2023-04-08T07:27:01;10.00;99.90
10388;DHT22;5240;51.128;4.566;2023-04-08T07:29:28;10.10;99.90
10388;DHT22;5240;51.128;4.566;2023-04-08T07:31:56;10.00;99.90
10388;DHT22;5240;51.128;4.566;2023-04-08T07:34:23;10.10;99.90
10388;DHT22;5240;51.128;4.566;2023-04-08T07:36:50;10.20;99.90
10388;DHT22;5240;51.128;4.566;2023-04-08T07:39:17;10.20;99.90
10388;DHT22;5240;51.128;4.566;2023-04-08T07:41:44;10.20;99.90
10388;DHT22;5240;51.128;4.566;2023-04-08T07:44:12;10.20;99.90
10388;DHT22;5240;51.128;4.566;2023-04-08T07:46:41;10.10;99.90
10388;DHT22;5240;51.128;4.566;2023-04-08T07:49:10;10.40;99.90
10388;DHT22;5240;51.128;4.566;2023-04-08T07:51:37;10.40;99.90
10388;DHT22;5240;51.128;4.566;2023-04-08T07:54:04;10.40;99.90
10388;DHT22;5240;51.128;4.566;2023-04-08T07:56:31;10.30;99.90
10388;DHT22;5240;51.128;4.566;2023-04-08T07:59:01;10.20;99.90
10388;DHT22;5240;51.128;4.566;2023-04-08T08:01:33;10.00;99.90
10388;DHT22;5240;51.128;4.566;2023-04-08T08:04:00;10.10;99.90
10388;DHT22;5240;51.128;4.566;2023-04-08T08:06:28;10.20;99.90
10388;DHT22;5240;51.128;4.566;2023-04-08T08:08:56;10.10;99.90
10388;DHT22;5240;51.128;4.566;2023-04-08T08:11:23;10.10;99.90
10388;DHT22;5240;51.128;4.566;2023-04-08T08:13:52;10.10;99.90
10388;DHT22;5240;51.128;4.566;2023-04-08T08:16:19;10.30;99.90
10388;DHT22;5240;51.128;4.566;2023-04-08T08:18:47;10.50;99.90
10388;DHT22;5240;51.128;4.566;2023-04-08T08:21:14;10.60;99.90
10388;DHT22;5240;51.128;4.566;2023-04-08T08:23:41;10.70;99.90
10388;DHT22;5240;51.128;4.566;2023-04-08T08:26:08;10.70;99.90
10388;DHT22;5240;51.128;4.566;2023-04-08T08:28:36;10.70;99.90
10388;DHT22;5240;51.128;4.566;2023-04-08T08:31:03;10.70;99.90
10388;DHT22;5240;51.128;4.566;2023-04-08T08:33:30;10.80;99.90
10388;DHT22;5240;51.128;4.566;2023-04-08T08:35:59;10.90;99.90
10388;DHT22;5240;51.128;4.566;2023-04-08T08:38:26;10.80;99.90
10388;DHT22;5240;51.128;4.566;2023-04-08T08:40:53;10.90;99.90
10388;DHT22;5240;51.128;4.566;2023-04-08T08:43:21;11.00;99.90
10388;DHT22;5240;51.128;4.566;2023-04-08T08:45:48;11.00;99.90
10388;DHT22;5240;51.128;4.566;2023-04-08T08:48:16;11.20;99.90
10388;DHT22;5240;51.128;4.566;2023-04-08T08:50:43;11.30;99.90
10388;DHT22;5240;51.128;4.566;2023-04-08T08:53:11;11.20;99.90
10388;DHT22;5240;51.128;4.566;2023-04-08T08:55:38;11.00;99.90
10388;DHT22;5240;51.128;4.566;2023-04-08T08:58:05;10.90;99.90
10388;DHT22;5240;51.128;4.566;2023-04-08T09:00:33;11.10;99.90
10388;DHT22;5240;51.128;4.566;2023-04-08T09:03:15;11.30;99.90
10388;DHT22;5240;51.128;4.566;2023-04-08T09:05:52;11.50;99.90
10388;DHT22;5240;51.128;4.566;2023-04-08T09:08:26;11.60;99.90
10388;DHT22;5240;51.128;4.566;2023-04-08T09:10:53;11.50;99.90
10388;DHT22;5240;51.128;4.566;2023-04-08T09:13:21;11.50;99.90
10388;DHT22;5240;51.128;4.566;2023-04-08T09:16:02;11.60;99.90
10388;DHT22;5240;51.128;4.566;2023-04-08T09:18:30;11.70;99.90
10388;DHT22;5240;51.128;4.566;2023-04-08T09:20:58;11.70;99.90
10388;DHT22;5240;51.128;4.566;2023-04-08T09:23:39;11.90;99.90
10388;DHT22;5240;51.128;4.566;2023-04-08T09:26:10;12.30;99.90
10388;DHT22;5240;51.128;4.566;2023-04-08T09:28:37;12.50;99.90
10388;DHT22;5240;51.128;4.566;2023-04-08T09:31:18;12.70;99.90
10388;DHT22;5240;51.128;4.566;2023-04-08T09:33:46;13.10;99.90
10388;DHT22;5240;51.128;4.566;2023-04-08T09:36:13;13.30;99.90
10388;DHT22;5240;51.128;4.566;2023-04-08T09:38:42;13.10;99.90
10388;DHT22;5240;51.128;4.566;2023-04-08T09:41:12;12.50;99.90
10388;DHT22;5240;51.128;4.566;2023-04-08T09:43:42;12.80;99.90
10388;DHT22;5240;51.128;4.566;2023-04-08T09:46:14;13.50;99.90
10388;DHT22;5240;51.128;4.566;2023-04-08T09:48:48;14.30;99.90
10388;DHT22;5240;51.128;4.566;2023-04-08T09:51:18;15.00;99.90
10388;DHT22;5240;51.128;4.566;2023-04-08T09:53:53;16.50;99.90
10388;DHT22;5240;51.128;4.566;2023-04-08T09:56:21;17.60;99.90
10388;DHT22;5240;51.128;4.566;2023-04-08T09:58:56;17.10;99.90
10388;DHT22;5240;51.128;4.566;2023-04-08T10:01:27;16.00;99.90
10388;DHT22;5240;51.128;4.566;2023-04-08T10:03:59;14.70;99.90
10388;DHT22;5240;51.128;4.566;2023-04-08T10:06:31;14.00;99.90
10388;DHT22;5240;51.128;4.566;2023-04-08T10:09:01;14.20;99.90
10388;DHT22;5240;51.128;4.566;2023-04-08T10:11:29;14.30;99.90
10388;DHT22;5240;51.128;4.566;2023-04-08T10:13:57;14.10;99.90
10388;DHT22;5240;51.128;4.566;2023-04-08T10:16:24;14.00;99.90
10388;DHT22;5240;51.128;4.566;2023-04-08T10:18:52;14.40;99.90
10388;DHT22;5240;51.128;4.566;2023-04-08T10:21:34;14.70;99.90
10388;DHT22;5240;51.128;4.566;2023-04-08T10:24:06;14.50;99.90
10388;DHT22;5240;51.128;4.566;2023-04-08T10:26:38;14.40;99.90
10388;DHT22;5240;51.128;4.566;2023-04-08T10:29:38;14.20;99.90
10388;DHT22;5240;51.128;4.566;2023-04-08T10:32:05;13.80;99.90
10388;DHT22;5240;51.128;4.566;2023-04-08T10:34:32;13.60;99.90
10388;DHT22;5240;51.128;4.566;2023-04-08T10:36:59;13.60;99.90
10388;DHT22;5240;51.128;4.566;2023-04-08T10:39:29;13.50;99.90
10388;DHT22;5240;51.128;4.566;2023-04-08T10:41:57;13.70;99.90
10388;DHT22;5240;51.128;4.566;2023-04-08T10:44:27;13.80;99.90
10388;DHT22;5240;51.128;4.566;2023-04-08T10:46:54;14.00;99.90
10388;DHT22;5240;51.128;4.566;2023-04-08T10:49:21;15.40;99.90
10388;DHT22;5240;51.128;4.566;2023-04-08T10:51:48;16.60;99.90
10388;DHT22;5240;51.128;4.566;2023-04-08T10:54:17;17.50;99.90
10388;DHT22;5240;51.128;4.566;2023-04-08T10:56:47;18.20;99.90
10388;DHT22;5240;51.128;4.566;2023-04-08T10:59:15;17.90;99.90
10388;DHT22;5240;51.128;4.566;2023-04-08T11:01:45;16.80;99.90
10388;DHT22;5240;51.128;4.566;2023-04-08T11:04:13;15.80;99.90
10388;DHT22;5240;51.128;4.566;2023-04-08T11:06:41;15.30;99.90
10388;DHT22;5240;51.128;4.566;2023-04-08T11:09:09;14.90;99.90
10388;DHT22;5240;51.128;4.566;2023-04-08T11:11:36;14.60;99.90
10388;DHT22;5240;51.128;4.566;2023-04-08T11:14:05;14.10;99.90
10388;DHT22;5240;51.128;4.566;2023-04-08T11:16:33;13.80;99.90
10388;DHT22;5240;51.128;4.566;2023-04-08T11:19:02;14.00;99.90
10388;DHT22;5240;51.128;4.566;2023-04-08T11:21:30;13.90;99.90
10388;DHT22;5240;51.128;4.566;2023-04-08T11:23:58;13.90;99.90
10388;DHT22;5240;51.128;4.566;2023-04-08T11:26:26;13.70;99.90
10388;DHT22;5240;51.128;4.566;2023-04-08T11:28:53;14.10;99.90
10388;DHT22;5240;51.128;4.566;2023-04-08T11:31:23;15.80;99.90
10388;DHT22;5240;51.128;4.566;2023-04-08T11:33:52;17.60;99.90
10388;DHT22;5240;51.128;4.566;2023-04-08T11:36:19;18.10;99.90
10388;DHT22;5240;51.128;4.566;2023-04-08T11:38:47;16.70;99.90
10388;DHT22;5240;51.128;4.566;2023-04-08T11:41:14;16.30;99.90
10388;DHT22;5240;51.128;4.566;2023-04-08T11:43:55;16.40;99.90
10388;DHT22;5240;51.128;4.566;2023-04-08T11:46:23;15.70;99.90
10388;DHT22;5240;51.128;4.566;2023-04-08T11:49:02;15.60;99.90
10388;DHT22;5240;51.128;4.566;2023-04-08T11:51:29;16.00;99.90
10388;DHT22;5240;51.128;4.566;2023-04-08T11:53:56;15.90;99.90
10388;DHT22;5240;51.128;4.566;2023-04-08T11:56:24;16.70;99.90
10388;DHT22;5240;51.128;4.566;2023-04-08T11:58:52;17.70;99.90
10388;DHT22;5240;51.128;4.566;2023-04-08T12:01:19;18.90;99.90
10388;DHT22;5240;51.128;4.566;2023-04-08T12:03:59;18.70;99.90
10388;DHT22;5240;51.128;4.566;2023-04-08T12:06:27;17.80;99.90
10388;DHT22;5240;51.128;4.566;2023-04-08T12:08:54;16.80;99.90
10388;DHT22;5240;51.128;4.566;2023-04-08T12:11:22;16.30;99.90
10388;DHT22;5240;51.128;4.566;2023-04-08T12:13:49;15.80;99.90
10388;DHT22;5240;51.128;4.566;2023-04-08T12:16:17;15.60;99.90
10388;DHT22;5240;51.128;4.566;2023-04-08T12:18:44;15.50;99.90
10388;DHT22;5240;51.128;4.566;2023-04-08T12:21:13;16.60;99.90
10388;DHT22;5240;51.128;4.566;2023-04-08T12:23:40;18.20;99.90
10388;DHT22;5240;51.128;4.566;2023-04-08T12:26:07;18.30;99.90
10388;DHT22;5240;51.128;4.566;2023-04-08T12:28:34;17.50;99.90
10388;DHT22;5240;51.128;4.566;2023-04-08T12:31:02;16.90;99.90
10388;DHT22;5240;51.128;4.566;2023-04-08T12:33:31;16.40;99.90
10388;DHT22;5240;51.128;4.566;2023-04-08T12:35:59;16.20;99.90
10388;DHT22;5240;51.128;4.566;2023-04-08T12:38:27;16.90;99.90
10388;DHT22;5240;51.128;4.566;2023-04-08T12:40:55;18.40;99.90
10388;DHT22;5240;51.128;4.566;2023-04-08T12:43:22;19.70;99.90
10388;DHT22;5240;51.128;4.566;2023-04-08T12:45:50;20.30;99.90
10388;DHT22;5240;51.128;4.566;2023-04-08T12:48:17;20.70;99.90
10388;DHT22;5240;51.128;4.566;2023-04-08T12:50:45;21.30;99.90
10388;DHT22;5240;51.128;4.566;2023-04-08T12:53:12;21.20;99.90
10388;DHT22;5240;51.128;4.566;2023-04-08T12:55:40;20.70;99.90
10388;DHT22;5240;51.128;4.566;2023-04-08T12:58:07;20.90;99.90
10388;DHT22;5240;51.128;4.566;2023-04-08T13:00:34;20.50;99.90
10388;DHT22;5240;51.128;4.566;2023-04-08T13:03:03;21.30;99.90
10388;DHT22;5240;51.128;4.566;2023-04-08T13:05:30;21.60;99.90
10388;DHT22;5240;51.128;4.566;2023-04-08T13:07:57;20.40;99.90
10388;DHT22;5240;51.128;4.566;2023-04-08T13:10:24;17.80;99.90
10388;DHT22;5240;51.128;4.566;2023-04-08T13:12:53;17.10;99.90
10388;DHT22;5240;51.128;4.566;2023-04-08T13:15:20;18.10;99.90
10388;DHT22;5240;51.128;4.566;2023-04-08T13:17:47;17.90;99.90
10388;DHT22;5240;51.128;4.566;2023-04-08T13:20:14;19.10;99.90
10388;DHT22;5240;51.128;4.566;2023-04-08T13:22:41;19.50;99.90
10388;DHT22;5240;51.128;4.566;2023-04-08T13:25:09;18.70;99.90
10388;DHT22;5240;51.128;4.566;2023-04-08T13:27:36;17.90;99.90
10388;DHT22;5240;51.128;4.566;2023-04-08T13:30:05;18.00;99.90
10388;DHT22;5240;51.128;4.566;2023-04-08T13:32:32;19.20;99.90
10388;DHT22;5240;51.128;4.566;2023-04-08T13:34:59;19.00;99.90
10388;DHT22;5240;51.128;4.566;2023-04-08T13:37:26;19.20;99.90
10388;DHT22;5240;51.128;4.566;2023-04-08T13:39:54;18.90;99.90
10388;DHT22;5240;51.128;4.566;2023-04-08T13:42:22;18.20;99.90
10388;DHT22;5240;51.128;4.566;2023-04-08T13:44:49;17.70;99.90
10388;DHT22;5240;51.128;4.566;2023-04-08T13:47:18;17.20;99.90
10388;DHT22;5240;51.128;4.566;2023-04-08T13:49:45;16.50;99.90
10388;DHT22;5240;51.128;4.566;2023-04-08T13:52:12;16.30;99.90
10388;DHT22;5240;51.128;4.566;2023-04-08T13:54:39;16.80;99.90
10388;DHT22;5240;51.128;4.566;2023-04-08T13:57:06;17.30;99.90
10388;DHT22;5240;51.128;4.566;2023-04-08T13:59:33;17.40;99.90
10388;DHT22;5240;51.128;4.566;2023-04-08T14:02:00;17.70;99.90
10388;DHT22;5240;51.128;4.566;2023-04-08T14:04:28;17.50;99.90
10388;DHT22;5240;51.128;4.566;2023-04-08T14:06:55;17.60;99.90
10388;DHT22;5240;51.128;4.566;2023-04-08T14:09:23;17.60;99.90
10388;DHT22;5240;51.128;4.566;2023-04-08T14:11:50;17.30;99.90
10388;DHT22;5240;51.128;4.566;2023-04-08T14:14:17;16.50;99.90
10388;DHT22;5240;51.128;4.566;2023-04-08T14:16:44;16.30;99.90
10388;DHT22;5240;51.128;4.566;2023-04-08T14:19:11;16.20;99.90
10388;DHT22;5240;51.128;4.566;2023-04-08T14:21:40;16.20;99.90
10388;DHT22;5240;51.128;4.566;2023-04-08T14:24:07;16.50;99.90
10388;DHT22;5240;51.128;4.566;2023-04-08T14:26:34;16.60;99.90
10388;DHT22;5240;51.128;4.566;2023-04-08T14:29:02;16.40;99.90
10388;DHT22;5240;51.128;4.566;2023-04-08T14:31:29;16.50;99.90
10388;DHT22;5240;51.128;4.566;2023-04-08T14:33:56;16.60;99.90
10388;DHT22;5240;51.128;4.566;2023-04-08T14:36:24;16.40;99.90
10388;DHT22;5240;51.128;4.566;2023-04-08T14:38:52;16.30;99.90
10388;DHT22;5240;51.128;4.566;2023-04-08T14:41:20;16.20;99.90
10388;DHT22;5240;51.128;4.566;2023-04-08T14:43:47;16.10;99.90
10388;DHT22;5240;51.128;4.566;2023-04-08T14:46:14;16.10;99.90
10388;DHT22;5240;51.128;4.566;2023-04-08T14:48:41;16.00;99.90
10388;DHT22;5240;51.128;4.566;2023-04-08T14:51:08;15.90;99.90
10388;DHT22;5240;51.128;4.566;2023-04-08T14:53:35;15.90;99.90
10388;DHT22;5240;51.128;4.566;2023-04-08T14:56:06;16.00;99.90
10388;DHT22;5240;51.128;4.566;2023-04-08T14:58:33;16.00;99.90
10388;DHT22;5240;51.128;4.566;2023-04-08T15:01:00;16.20;99.90
10388;DHT22;5240;51.128;4.566;2023-04-08T15:03:27;16.20;99.90
10388;DHT22;5240;51.128;4.566;2023-04-08T15:05:54;16.20;99.90
10388;DHT22;5240;51.128;4.566;2023-04-08T15:08:22;15.80;99.90
10388;DHT22;5240;51.128;4.566;2023-04-08T15:10:49;15.70;99.90
10388;DHT22;5240;51.128;4.566;2023-04-08T15:13:18;15.70;99.90
10388;DHT22;5240;51.128;4.566;2023-04-08T15:15:45;15.60;99.90
10388;DHT22;5240;51.128;4.566;2023-04-08T15:18:12;15.60;99.90
10388;DHT22;5240;51.128;4.566;2023-04-08T15:20:39;15.60;99.90
10388;DHT22;5240;51.128;4.566;2023-04-08T15:23:07;15.70;99.90
10388;DHT22;5240;51.128;4.566;2023-04-08T15:25:34;15.70;99.90
10388;DHT22;5240;51.128;4.566;2023-04-08T15:28:01;15.70;99.90
10388;DHT22;5240;51.128;4.566;2023-04-08T15:30:31;15.50;99.90
10388;DHT22;5240;51.128;4.566;2023-04-08T15:33:01;15.40;99.90
10388;DHT22;5240;51.128;4.566;2023-04-08T15:35:28;15.50;99.90
10388;DHT22;5240;51.128;4.566;2023-04-08T15:37:55;15.60;99.90
10388;DHT22;5240;51.128;4.566;2023-04-08T15:40:22;15.80;99.90
10388;DHT22;5240;51.128;4.566;2023-04-08T15:42:50;15.80;99.90
10388;DHT22;5240;51.128;4.566;2023-04-08T15:45:17;15.70;99.90
10388;DHT22;5240;51.128;4.566;2023-04-08T15:47:45;15.70;99.90
10388;DHT22;5240;51.128;4.566;2023-04-08T15:50:13;16.00;99.90
10388;DHT22;5240;51.128;4.566;2023-04-08T15:52:42;16.10;99.90
10388;DHT22;5240;51.128;4.566;2023-04-08T15:55:09;15.80;99.90
10388;DHT22;5240;51.128;4.566;2023-04-08T15:57:36;15.90;99.90